Pagina principală
METAR-TAF:

METAR-TAF

Aeroporturi :

Galveston, Texas, Statele Unite ale Americii

Latitudine: 29-16-13N, longitudine: 094-51-51W, elevație: 2 m

Observații meteo curente

Raportul a fost făcut în urmă cu 1 oră și 11 de minute, la 21:52 UTC
Vânt 12 kt de la Est
Temperatură 30°C
Umiditate 70%
Presiune 1016 hPa
Vizibilitate: 16.1 km
Cer senin

METAR: KGLS 222152Z 09012KT 10SM CLR 30/24 A2999 RMK AO2 SLP155 T03000244 $

Ora: 18:03 (23:03 UTC)

Prognoză

Raportul a fost făcut în urmă cu 5 ore și 43 de minute, la 17:20 UTC
Prognoză valabilă de la 22 ora 18 UTC la 23 ora 18 UTC
Vânt 13 kt de la Est
Vizibilitate: 10 km
Nori puțini la o înălțime de 3000 picior
De la 23 ora 0000 UTC
Vânt 9 kt de la Est/Sud-est
Vizibilitate: 10 km
Nori puțini la o înălțime de 25000 picior

TAF: KGLS 221720Z 2218/2318 09013KT P6SM FEW030 FM230000 12009KT P6SM FEW250

Observații și prognoze meteo pentru peste 4.000 de aeroporturi (rapoarte METAR și TAF).

Stațiile disponibile sunt reprezentate pe hartă prin puncte galbene și roșii.

Țineți indicatorul mouse-ului pe punctul dorit pentru a vedea denumirea stației.

Apoi, faceți clic pentru a vedea observațiile și prognozele meteorologice.

Pentru a schimba harta: Pentru mărire, faceți clic pe butoanele verzi cu cruce neagră; pentru micșorare, pe butonul verde cu o liniuță; pentru hărți învecinate, pe săgețile verzi.


METAR-TAF: